Bei Facebook empfehlenBei Twitter postenGoogle plusPinterest

Das Wetter im Erzgebirge am 18.07.2016

Wetter und Klima am 18.07.2016 Holzhau im Erzgebirge (630m ü.NN)
Letzte gemessene Temperatur und Uhrzeit der Messung23:45:00 Uhr14.20 °C
Temperatur (Maximum / Höchstwert) und Uhrzeit der Messung16:00:00 Uhr22.80 °C
Temperatur (Minimum / Tiefstwert) und Uhrzeit der Messung05:30:0011.30 °C
Errechneter Absolutwert der Temperaturschwankungen zwischen Tmin und Tmax des Tages11.50 K
Errechnete Tagesmitteltemperatur17.20208 °C
Gesamt - Niederschlag des Tages (in flüssiger Form)0.00 Liter / m²
Luftdruck (Maximum / Höchstwert) und Zeitpunkt der Messung15:30:00 Uhr1019.70 hPa
Luftdruck (Minimum / Tiefstwert) und Zeitpunkt der Messung05:00:00 Uhr1018.20 hPa
Errechneter Absolutwert der Luftdruckschwankungen des Tages1.50 hPa
Höchste gemessene Windgeschwindigkeit und Uhrzeit der Messung23:45:00 Uhr0.00 km/h
Errechnete Windhäufigkeit in Relation zu den Messwerten des Tages0.00000 %
Niedrigste Windkühle (Windchill) und Zeitpunkt der Messung05:30:00 Uhr11.30 °C
Taupunkt (Maximum / Höchstwert) und Uhrzeit der Messung09:00:00 Uhr15.80 °C
Taupunkt (Minimum / Tiefstwert) und Uhrzeit der Messung05:30:0010.50 °C
Anzahl der automatisch eingelesenen Messwerte 96

Detaillierte Wetter- und Klima- Messwerte für den 18.07.2016 in Holzhau im Erzgebirge (630m ü.NN)
ZeitTemperaturLuftdruckRel. LuftfeuchteWindWindrichtungWindchillTaupunktNiederschlag l/m²
23:45:0014.20 °C1019.60 hPa87.00 %12.10 °C 
23:30:0014.10 °C1019.60 hPa87.00 %12.00 °C 
23:15:0014.20 °C1019.40 hPa87.00 %12.10 °C 
23:00:0014.30 °C1019.50 hPa86.00 %12.00 °C 
22:45:0014.40 °C1019.30 hPa86.00 %12.10 °C 
22:30:0014.70 °C1019.20 hPa84.00 %12.00 °C 
22:15:0014.90 °C1019.20 hPa83.00 %12.00 °C 
22:00:0015.30 °C1019.00 hPa81.00 %12.10 °C 
21:45:0015.80 °C1019.20 hPa80.00 %12.40 °C 
21:30:0016.20 °C1018.90 hPa78.00 %12.40 °C 
21:15:0016.60 °C1018.80 hPa77.00 %12.60 °C 
21:00:0016.90 °C1018.70 hPa75.00 %12.40 °C 
20:45:0017.50 °C1018.70 hPa73.00 %12.60 °C 
20:30:0018.10 °C1018.70 hPa71.00 %12.80 °C 
20:15:0018.80 °C1018.70 hPa68.00 %12.80 °C 
20:00:0019.50 °C1018.60 hPa67.00 %13.20 °C 
19:45:0019.90 °C1018.60 hPa66.00 %13.40 °C 
19:30:0020.40 °C1018.50 hPa66.00 %13.80 °C 
19:15:0020.40 °C1018.60 hPa67.00 %14.10 °C 
19:00:0020.20 °C1018.70 hPa66.00 %13.60 °C 
18:45:0020.20 °C1018.80 hPa66.00 %13.60 °C 
18:30:0020.60 °C1018.90 hPa66.00 %14.00 °C 
18:15:0020.40 °C1018.90 hPa67.00 %14.10 °C 
18:00:0020.10 °C1019.20 hPa67.00 %13.80 °C 
17:45:0020.20 °C1019.40 hPa65.00 %13.40 °C 
17:30:0020.80 °C1019.60 hPa64.00 %13.70 °C 
17:15:0021.10 °C1019.50 hPa63.00 %13.80 °C 
17:00:0021.20 °C1019.60 hPa63.00 %13.90 °C 
16:45:0020.90 °C1019.60 hPa63.00 %13.60 °C 
16:30:0021.60 °C1019.50 hPa60.00 %13.50 °C 
16:15:0022.40 °C1019.40 hPa60.00 %14.30 °C 
16:00:0022.80 °C1019.60 hPa59.00 %14.40 °C 
15:45:0022.10 °C1019.50 hPa60.00 %14.00 °C 
15:30:0022.20 °C1019.70 hPa60.00 %14.10 °C 
15:15:0022.50 °C1019.60 hPa60.00 %14.40 °C 
15:00:0022.40 °C1019.60 hPa60.00 %14.30 °C 
14:45:0022.00 °C1019.70 hPa60.00 %13.90 °C 
14:30:0021.90 °C1019.60 hPa62.00 %14.30 °C 
14:15:0022.30 °C1019.70 hPa61.00 %14.40 °C 
14:00:0021.80 °C1019.50 hPa64.00 %14.70 °C 
13:45:0021.40 °C1019.50 hPa63.00 %14.10 °C 
13:30:0021.10 °C1019.60 hPa65.00 %14.30 °C 
13:15:0020.60 °C1019.40 hPa66.00 %14.00 °C 
13:00:0020.70 °C1019.40 hPa65.00 %13.90 °C 
12:45:0021.80 °C1019.30 hPa65.00 %14.90 °C 
12:30:0020.90 °C1019.30 hPa66.00 %14.30 °C 
12:15:0020.50 °C1019.20 hPa67.00 %14.20 °C 
12:00:0019.90 °C1019.10 hPa68.00 %13.80 °C 
11:45:0019.60 °C1019.30 hPa69.00 %13.80 °C 
11:30:0019.10 °C1019.50 hPa68.00 %13.10 °C 
11:15:0019.30 °C1019.40 hPa68.00 %13.20 °C 
11:00:0019.20 °C1019.40 hPa69.00 %13.40 °C 
10:45:0018.90 °C1019.30 hPa71.00 %13.50 °C 
10:30:0018.90 °C1019.30 hPa73.00 %14.00 °C 
10:15:0019.10 °C1019.10 hPa73.00 %14.10 °C 
10:00:0019.10 °C1018.80 hPa75.00 %14.60 °C 
09:45:0019.40 °C1018.70 hPa77.00 %15.30 °C 
09:30:0018.90 °C1018.70 hPa79.00 %15.20 °C 
09:15:0018.80 °C1018.70 hPa80.00 %15.30 °C 
09:00:0018.40 °C1018.70 hPa85.00 %15.80 °C 
08:45:0017.60 °C1018.70 hPa89.00 %15.80 °C 
08:30:0016.80 °C1018.80 hPa93.00 %15.70 °C 
08:15:0016.40 °C1018.70 hPa96.00 %15.80 °C 
08:00:0014.90 °C1018.80 hPa96.00 %14.30 °C 
07:45:0013.90 °C1018.90 hPa96.00 %13.30 °C 
07:30:0013.60 °C1018.90 hPa95.00 %12.80 °C 
07:15:0013.10 °C1018.70 hPa95.00 %12.30 °C 
07:00:0012.60 °C1018.80 hPa96.00 %12.00 °C 
06:45:0012.10 °C1018.70 hPa95.00 %11.30 °C 
06:30:0011.50 °C1018.60 hPa95.00 %10.70 °C 
06:15:0011.50 °C1018.60 hPa95.00 %10.70 °C 
06:00:0011.60 °C1018.50 hPa95.00 %10.80 °C 
05:45:0011.40 °C1018.50 hPa95.00 %10.60 °C 
05:30:0011.30 °C1018.40 hPa95.00 %10.50 °C 
05:15:0011.50 °C1018.30 hPa95.00 %10.70 °C 
05:00:0011.80 °C1018.20 hPa95.00 %11.00 °C 
04:45:0012.10 °C1018.20 hPa95.00 %11.30 °C 
04:30:0012.40 °C1018.20 hPa95.00 %11.60 °C 
04:15:0012.50 °C1018.30 hPa95.00 %11.70 °C 
04:00:0012.90 °C1018.20 hPa95.00 %12.10 °C 
03:45:0013.30 °C1018.40 hPa95.00 %12.50 °C 
03:30:0013.60 °C1018.40 hPa95.00 %12.80 °C 
03:15:0014.10 °C1018.40 hPa95.00 %13.30 °C 
03:00:0014.40 °C1018.30 hPa95.00 %13.60 °C 
02:45:0014.60 °C1018.30 hPa95.00 %13.80 °C 
02:30:0014.60 °C1018.40 hPa95.00 %13.80 °C 
02:15:0014.80 °C1018.50 hPa95.00 %14.00 °C 
02:00:0014.90 °C1018.60 hPa95.00 %14.10 °C 
01:45:0014.90 °C1018.50 hPa95.00 %14.10 °C 
01:30:0014.90 °C1018.60 hPa95.00 %14.10 °C 
01:15:0014.70 °C1018.50 hPa95.00 %13.90 °C 
01:00:0014.40 °C1018.60 hPa94.00 %13.40 °C 
00:45:0014.30 °C1018.50 hPa94.00 %13.30 °C 
00:30:0013.90 °C1018.60 hPa94.00 %13.00 °C 
00:15:0013.60 °C1018.50 hPa94.00 %12.70 °C 
00:00:0013.40 °C1018.60 hPa93.00 %12.30 °C 

Permanenter Link zu dieser Seite: Wetter im Erzgebirge am 18.07.2016
Performance-Info: Die Erstellung der Seite / Statistik(en) / Tabelle(n) erforderte 5 Datenbankserver-Abfrage(n) und dauerte 99 Millisekunden. (Dieser Messwert ist von der Gesamt-Auslastung des Servers abhängig.)
Erzgebirge - Wetter | Erzgebirge - Wetter (Mobilgeräte) | Komplette Klimadatenbank